createdAt,value
2023-01-28T00:01:29.821Z,76.00
2023-01-28T00:06:35.799Z,75.65
2023-01-28T00:11:43.786Z,75.89
2023-01-28T00:16:48.056Z,75.67
2023-01-28T00:21:56.924Z,76.19
2023-01-28T00:26:59.741Z,76.05
2023-01-28T00:32:02.623Z,76.19
2023-01-28T00:37:27.859Z,76.32
2023-01-28T00:42:46.767Z,75.64
2023-01-28T00:47:49.268Z,75.90
2023-01-28T00:52:55.092Z,76.03
2023-01-28T00:58:17.661Z,75.93
2023-01-28T01:03:26.367Z,76.20
2023-01-28T01:08:41.099Z,76.39
2023-01-28T01:13:58.130Z,76.46
2023-01-28T01:19:01.484Z,76.45
2023-01-28T01:24:07.008Z,76.51
2023-01-28T01:29:09.944Z,76.35
2023-01-28T01:34:19.762Z,75.63
2023-01-28T01:39:24.701Z,75.23
2023-01-28T01:45:18.620Z,75.52
2023-01-28T01:50:36.688Z,75.23
2023-01-28T01:55:43.557Z,74.58
2023-01-28T02:00:49.083Z,74.58
2023-01-28T02:05:54.983Z,74.65
2023-01-28T02:11:05.401Z,74.37
2023-01-28T02:16:09.399Z,74.56
2023-01-28T02:21:51.230Z,74.51
2023-01-28T02:27:25.300Z,74.74
2023-01-28T02:32:54.191Z,74.75
2023-01-28T02:38:19.476Z,74.89
2023-01-28T02:43:40.352Z,74.78
2023-01-28T02:48:43.103Z,74.62
2023-01-28T02:54:12.910Z,74.61
2023-01-28T02:59:31.398Z,74.90
2023-01-28T03:05:26.687Z,74.61
2023-01-28T03:10:29.786Z,74.71
2023-01-28T03:16:00.047Z,74.79
2023-01-28T03:21:43.933Z,75.04
2023-01-28T03:27:33.752Z,74.89
2023-01-28T03:33:06.526Z,74.71
2023-01-28T03:38:23.791Z,74.61
2023-01-28T03:43:42.829Z,74.67
2023-01-28T03:48:47.960Z,74.47
2023-01-28T03:53:54.328Z,74.49
2023-01-28T03:59:08.373Z,74.31
2023-01-28T04:04:22.900Z,74.02
2023-01-28T04:09:29.770Z,74.25
2023-01-28T04:14:53.225Z,74.18
2023-01-28T04:20:06.952Z,73.80
2023-01-28T04:25:10.148Z,73.75
2023-01-28T04:30:12.863Z,73.60
2023-01-28T04:35:32.750Z,73.56
2023-01-28T04:41:24.387Z,73.80
2023-01-28T04:46:33.275Z,73.55
2023-01-28T04:51:49.143Z,73.45
2023-01-28T04:57:11.139Z,73.43
2023-01-28T05:02:19.086Z,73.51
2023-01-28T05:07:35.876Z,73.34
2023-01-28T05:12:50.223Z,73.41
2023-01-28T05:18:00.905Z,73.37
2023-01-28T05:23:16.391Z,73.49
2023-01-28T05:28:29.363Z,73.63
2023-01-28T05:33:42.606Z,73.40
2023-01-28T05:38:47.570Z,73.40
2023-01-28T05:43:50.613Z,73.35
2023-01-28T05:49:08.640Z,73.28
2023-01-28T05:54:58.613Z,73.26
2023-01-28T06:00:16.177Z,73.31
2023-01-28T06:05:32.034Z,73.19
2023-01-28T06:10:47.448Z,73.41
2023-01-28T06:15:54.995Z,73.06
2023-01-28T06:21:44.018Z,73.63
2023-01-28T06:26:47.825Z,73.91
2023-01-28T06:31:53.493Z,74.30
2023-01-28T06:37:05.090Z,74.42
2023-01-28T06:42:09.678Z,74.53
2023-01-28T06:47:12.344Z,74.73
2023-01-28T06:52:15.269Z,74.82
2023-01-28T06:57:17.764Z,74.81
2023-01-28T07:02:20.652Z,74.97
2023-01-28T07:07:31.843Z,74.81
2023-01-28T07:12:37.206Z,74.48
2023-01-28T07:17:43.267Z,74.67
2023-01-28T07:22:56.126Z,74.48
2023-01-28T07:27:58.608Z,74.56
2023-01-28T07:33:01.686Z,74.55
2023-01-28T07:38:06.443Z,74.63
2023-01-28T07:43:14.359Z,74.13
2023-01-28T07:48:24.251Z,74.06
2023-01-28T07:53:34.419Z,73.86
2023-01-28T07:58:39.354Z,73.48
2023-01-28T08:03:46.923Z,73.17
2023-01-28T08:08:51.548Z,73.35
2023-01-28T08:13:53.765Z,73.22
2023-01-28T08:18:58.855Z,72.88
2023-01-28T08:24:03.324Z,72.76
2023-01-28T08:29:06.327Z,72.63
2023-01-28T08:34:14.470Z,72.39
2023-01-28T08:39:25.849Z,72.11
2023-01-28T08:44:37.043Z,72.12
2023-01-28T08:49:42.650Z,72.00
2023-01-28T08:54:45.124Z,72.02
2023-01-28T08:59:53.256Z,71.74
2023-01-28T09:04:58.616Z,71.11
2023-01-28T09:10:01.243Z,71.18
2023-01-28T09:15:05.108Z,70.99
2023-01-28T09:20:33.910Z,71.12
2023-01-28T09:25:37.049Z,70.65
2023-01-28T09:30:42.867Z,70.44
2023-01-28T09:35:45.556Z,70.10
2023-01-28T09:40:51.428Z,70.00
2023-01-28T09:45:58.236Z,70.07
2023-01-28T09:51:01.863Z,69.58
2023-01-28T09:56:14.395Z,69.79
2023-01-28T10:01:19.973Z,69.72
2023-01-28T10:06:51.081Z,69.64
2023-01-28T10:12:37.374Z,69.58
2023-01-28T10:17:46.130Z,69.21
2023-01-28T10:23:02.712Z,68.60
2023-01-28T10:28:21.091Z,68.14
2023-01-28T10:33:28.969Z,68.31
2023-01-28T10:38:31.923Z,67.95
2023-01-28T10:43:37.676Z,67.78
2023-01-28T10:48:47.360Z,67.84
2023-01-28T10:53:49.682Z,68.12
2023-01-28T10:59:03.169Z,68.22
2023-01-28T11:04:07.579Z,67.26
2023-01-28T11:09:22.401Z,67.34
2023-01-28T11:14:28.104Z,67.51
2023-01-28T11:19:39.019Z,66.64
2023-01-28T11:24:43.147Z,66.75
2023-01-28T11:29:46.543Z,67.10
2023-01-28T11:34:51.588Z,66.60
2023-01-28T11:40:24.313Z,66.29
2023-01-28T11:45:42.426Z,66.62
2023-01-28T11:50:58.361Z,66.77
2023-01-28T11:56:45.485Z,67.14
2023-01-28T12:02:21.489Z,67.20
2023-01-28T12:07:36.094Z,66.94
2023-01-28T12:12:45.703Z,67.07
2023-01-28T12:17:56.760Z,67.19
2023-01-28T12:23:24.609Z,67.06
2023-01-28T12:28:41.734Z,66.53
2023-01-28T12:34:38.704Z,66.81
2023-01-28T12:40:33.693Z,66.76
2023-01-28T12:45:51.849Z,67.38
2023-01-28T12:51:02.423Z,67.11
2023-01-28T12:56:16.944Z,67.15
2023-01-28T13:01:25.861Z,66.77
2023-01-28T13:06:33.748Z,67.17
2023-01-28T13:11:37.164Z,67.70
2023-01-28T13:16:39.579Z,67.68
2023-01-28T13:21:49.156Z,67.23
2023-01-28T13:26:55.068Z,68.04
2023-01-28T13:32:03.391Z,68.17
2023-01-28T13:37:28.549Z,68.26
2023-01-28T13:42:35.382Z,68.32
2023-01-28T13:47:41.022Z,68.55
2023-01-28T13:52:50.716Z,68.70
2023-01-28T13:58:31.619Z,68.80
2023-01-28T14:03:58.700Z,69.00
2023-01-28T14:09:31.914Z,69.12
2023-01-28T14:15:16.582Z,69.47
2023-01-28T14:20:32.735Z,69.55
2023-01-28T14:26:00.055Z,69.78
2023-01-28T14:31:32.918Z,69.95
2023-01-28T14:36:40.935Z,70.43
2023-01-28T14:41:48.267Z,70.54
2023-01-28T14:47:17.908Z,70.73
2023-01-28T14:52:25.429Z,71.25
2023-01-28T14:57:44.868Z,71.01
2023-01-28T15:02:46.909Z,71.26
2023-01-28T15:07:49.725Z,71.75
2023-01-28T15:13:00.296Z,71.87
2023-01-28T15:18:25.508Z,72.27
2023-01-28T15:23:36.793Z,72.65
2023-01-28T15:28:40.666Z,72.78
2023-01-28T15:33:42.954Z,72.84
2023-01-28T15:38:45.189Z,73.13
2023-01-28T15:43:49.755Z,73.18
2023-01-28T15:49:04.028Z,73.82
2023-01-28T15:54:11.099Z,74.26
2023-01-28T15:59:16.136Z,74.51
2023-01-28T16:04:30.025Z,74.65
2023-01-28T16:09:34.726Z,75.24
2023-01-28T16:14:49.702Z,75.61
2023-01-28T16:19:59.114Z,76.07
2023-01-28T16:25:01.979Z,76.53
2023-01-28T16:30:06.094Z,76.85
2023-01-28T16:35:23.270Z,77.20
2023-01-28T16:40:25.613Z,77.74
2023-01-28T16:45:27.860Z,77.99
2023-01-28T16:50:32.682Z,77.98
2023-01-28T16:55:35.224Z,78.18
2023-01-28T17:00:37.314Z,78.41
2023-01-28T17:05:39.493Z,78.65
2023-01-28T17:10:41.551Z,78.95
2023-01-28T17:15:43.477Z,79.03
2023-01-28T17:20:45.488Z,79.07
2023-01-28T17:25:47.608Z,78.68
2023-01-28T17:30:49.987Z,79.09
2023-01-28T17:35:52.836Z,79.20
2023-01-28T17:40:54.986Z,79.53
2023-01-28T17:45:57.250Z,79.92
2023-01-28T17:50:59.691Z,79.70
2023-01-28T17:56:01.634Z,80.14
2023-01-28T18:01:10.192Z,80.09
2023-01-28T18:06:14.692Z,80.58
2023-01-28T18:11:21.557Z,80.65
2023-01-28T18:16:24.845Z,80.98
2023-01-28T18:21:51.774Z,80.71
2023-01-28T18:26:59.758Z,81.26
2023-01-28T18:32:03.229Z,81.09
2023-01-28T18:37:07.653Z,81.17
2023-01-28T18:42:10.020Z,81.30
2023-01-28T18:47:12.092Z,81.43
2023-01-28T18:52:14.677Z,81.56
2023-01-28T18:57:26.068Z,81.58
2023-01-28T19:02:28.622Z,82.12
2023-01-28T19:07:31.725Z,82.21
2023-01-28T19:12:37.158Z,82.22
2023-01-28T19:17:39.597Z,82.12
2023-01-28T19:22:44.402Z,82.15
2023-01-28T19:27:46.420Z,82.14
2023-01-28T19:32:48.636Z,82.37
2023-01-28T19:37:51.017Z,82.42
2023-01-28T19:42:53.966Z,82.40
2023-01-28T19:47:59.323Z,82.23
2023-01-28T19:53:01.493Z,82.42
2023-01-28T19:58:04.126Z,82.29
2023-01-28T20:03:08.321Z,82.34
2023-01-28T20:08:10.886Z,82.41
2023-01-28T20:13:16.153Z,82.52
2023-01-28T20:18:18.983Z,82.55
2023-01-28T20:23:36.081Z,82.34
2023-01-28T20:28:41.947Z,82.60
2023-01-28T20:33:49.844Z,82.53
2023-01-28T20:38:52.044Z,82.63
2023-01-28T20:43:55.058Z,82.57
2023-01-28T20:48:59.326Z,82.52
2023-01-28T20:54:02.014Z,82.43
2023-01-28T20:59:06.145Z,82.74
2023-01-28T21:04:10.763Z,82.57
2023-01-28T21:09:13.086Z,82.81
2023-01-28T21:14:17.223Z,82.76
2023-01-28T21:19:21.847Z,82.77
2023-01-28T21:24:24.236Z,82.89
2023-01-28T21:29:26.830Z,82.77
2023-01-28T21:34:33.261Z,82.75
2023-01-28T21:39:35.810Z,82.71
2023-01-28T21:44:37.710Z,83.03
2023-01-28T21:49:40.468Z,82.94
2023-01-28T21:54:45.492Z,82.83
2023-01-28T21:59:47.801Z,82.71
2023-01-28T22:04:50.571Z,82.67
2023-01-28T22:09:58.214Z,82.71
2023-01-28T22:15:10.625Z,82.28
2023-01-28T22:20:13.887Z,82.02
2023-01-28T22:25:16.894Z,82.05
2023-01-28T22:30:19.214Z,82.28
2023-01-28T22:35:24.094Z,82.25
2023-01-28T22:40:26.065Z,82.24
2023-01-28T22:45:28.919Z,82.46
2023-01-28T22:50:31.255Z,82.49
2023-01-28T22:55:33.743Z,82.41
2023-01-28T23:00:35.862Z,82.40
2023-01-28T23:05:38.549Z,82.35
2023-01-28T23:10:47.133Z,82.43
2023-01-28T23:16:08.981Z,82.40
2023-01-28T23:21:40.609Z,82.38
2023-01-28T23:26:42.545Z,82.38
2023-01-28T23:31:47.415Z,82.42
2023-01-28T23:36:50.617Z,82.22
2023-01-28T23:41:53.269Z,82.35
2023-01-28T23:46:56.343Z,82.05
2023-01-28T23:51:58.645Z,81.78
2023-01-28T23:57:01.195Z,81.90
